createdAt,value
2023-03-16T00:02:21.370Z,98849.72
2023-03-16T00:04:50.605Z,98841.16
2023-03-16T00:07:18.588Z,98842.06
2023-03-16T00:09:46.061Z,98847.34
2023-03-16T00:12:17.007Z,98853.50
2023-03-16T00:14:46.470Z,98837.91
2023-03-16T00:17:19.768Z,98838.81
2023-03-16T00:19:55.576Z,98842.34
2023-03-16T00:22:25.500Z,98837.16
2023-03-16T00:24:53.196Z,98838.97
2023-03-16T00:27:23.291Z,98835.53
2023-03-16T00:29:56.474Z,98835.59
2023-03-16T00:32:26.794Z,98840.75
2023-03-16T00:34:54.764Z,98841.59
2023-03-16T00:37:23.951Z,98835.53
2023-03-16T00:39:51.938Z,98834.63
2023-03-16T00:42:20.491Z,98843.34
2023-03-16T00:44:47.692Z,98845.91
2023-03-16T00:47:15.470Z,98840.63
2023-03-16T00:49:44.628Z,98844.97
2023-03-16T00:52:16.836Z,98846.72
2023-03-16T00:54:46.502Z,98851.06
2023-03-16T00:57:16.793Z,98851.91
2023-03-16T00:59:44.106Z,98857.91
2023-03-16T01:02:12.992Z,98857.00
2023-03-16T01:04:41.498Z,98850.78
2023-03-16T01:07:12.727Z,98857.53
2023-03-16T01:09:41.554Z,98856.38
2023-03-16T01:12:15.785Z,98852.63
2023-03-16T01:14:48.782Z,98858.44
2023-03-16T01:17:18.433Z,98860.84
2023-03-16T01:19:46.479Z,98862.38
2023-03-16T01:22:14.243Z,98863.94
2023-03-16T01:24:42.909Z,98862.00
2023-03-16T01:27:10.564Z,98873.16
2023-03-16T01:29:38.721Z,98863.41
2023-03-16T01:32:07.715Z,98870.25
2023-03-16T01:34:35.711Z,98868.38
2023-03-16T01:37:04.041Z,98870.00
2023-03-16T01:39:47.365Z,98874.16
2023-03-16T01:42:15.281Z,98873.16
2023-03-16T01:45:01.825Z,98880.75
2023-03-16T01:47:38.690Z,98875.31
2023-03-16T01:50:10.557Z,98878.56
2023-03-16T01:52:40.465Z,98876.53
2023-03-16T01:55:13.493Z,98872.78
2023-03-16T01:57:43.856Z,98875.97
2023-03-16T02:00:20.099Z,98868.72
2023-03-16T02:03:07.642Z,98871.94
2023-03-16T02:06:00.289Z,98867.31
2023-03-16T02:08:29.963Z,98880.09
2023-03-16T02:10:58.227Z,98881.59
2023-03-16T02:13:36.965Z,98877.84
2023-03-16T02:16:07.746Z,98885.50
2023-03-16T02:18:36.736Z,98882.66
2023-03-16T02:21:27.423Z,98886.75
2023-03-16T02:23:55.537Z,98887.38
2023-03-16T02:26:44.953Z,98885.28
2023-03-16T02:29:18.992Z,98895.47
2023-03-16T02:31:48.127Z,98901.50
2023-03-16T02:34:18.081Z,98897.78
2023-03-16T02:36:49.202Z,98911.78
2023-03-16T02:39:19.875Z,98908.16
2023-03-16T02:41:47.941Z,98923.03
2023-03-16T02:44:25.364Z,98921.34
2023-03-16T02:46:58.615Z,98924.88
2023-03-16T02:49:33.059Z,98932.66
2023-03-16T02:52:00.435Z,98933.59
2023-03-16T02:54:28.088Z,98935.34
2023-03-16T02:56:56.431Z,98937.03
2023-03-16T02:59:24.824Z,98930.88
2023-03-16T03:01:52.058Z,98936.16
2023-03-16T03:04:19.523Z,98932.59
2023-03-16T03:06:49.324Z,98929.09
2023-03-16T03:09:16.730Z,98919.56
2023-03-16T03:11:44.390Z,98930.34
2023-03-16T03:14:11.623Z,98935.69
2023-03-16T03:16:40.765Z,98933.13
2023-03-16T03:19:10.221Z,98926.22
2023-03-16T03:21:38.851Z,98939.28
2023-03-16T03:24:08.776Z,98938.56
2023-03-16T03:26:38.368Z,98937.06
2023-03-16T03:29:12.533Z,98931.06
2023-03-16T03:31:40.138Z,98938.25
2023-03-16T03:34:07.987Z,98951.44
2023-03-16T03:36:36.011Z,98950.00
2023-03-16T03:39:07.355Z,98943.13
2023-03-16T03:41:35.688Z,98943.91
2023-03-16T03:44:05.211Z,98951.00
2023-03-16T03:46:34.733Z,98944.97
2023-03-16T03:49:05.516Z,98951.19
2023-03-16T03:51:35.339Z,98951.31
2023-03-16T03:54:06.381Z,98947.94
2023-03-16T03:57:11.916Z,98967.44
2023-03-16T03:59:43.789Z,98956.94
2023-03-16T04:02:40.778Z,98968.13
2023-03-16T04:05:16.119Z,98967.63
2023-03-16T04:07:43.733Z,98967.50
2023-03-16T04:10:13.184Z,98958.75
2023-03-16T04:12:43.365Z,98962.06
2023-03-16T04:15:13.476Z,98963.63
2023-03-16T04:18:00.060Z,98967.91
2023-03-16T04:20:30.035Z,98967.06
2023-03-16T04:23:00.992Z,98963.34
2023-03-16T04:25:31.069Z,98962.75
2023-03-16T04:27:59.922Z,98960.94
2023-03-16T04:30:33.192Z,98963.50
2023-03-16T04:33:13.274Z,98980.69
2023-03-16T04:35:41.955Z,98992.13
2023-03-16T04:38:10.986Z,99001.44
2023-03-16T04:40:45.954Z,99004.84
2023-03-16T04:43:21.039Z,99004.69
2023-03-16T04:45:49.740Z,99000.31
2023-03-16T04:48:17.651Z,99003.81
2023-03-16T04:50:46.542Z,99008.13
2023-03-16T04:53:13.884Z,99022.91
2023-03-16T04:55:42.300Z,99011.25
2023-03-16T04:58:09.891Z,99017.31
2023-03-16T05:00:41.576Z,99009.66
2023-03-16T05:03:23.025Z,99005.16
2023-03-16T05:05:51.247Z,99007.91
2023-03-16T05:08:19.126Z,99009.28
2023-03-16T05:10:50.171Z,99004.88
2023-03-16T05:13:19.450Z,99008.38
2023-03-16T05:15:49.015Z,99016.06
2023-03-16T05:18:28.566Z,99018.19
2023-03-16T05:20:56.905Z,99018.00
2023-03-16T05:23:29.510Z,99022.41
2023-03-16T05:26:01.326Z,99022.66
2023-03-16T05:28:32.240Z,99024.06
2023-03-16T05:31:10.304Z,99024.63
2023-03-16T05:33:43.441Z,99027.94
2023-03-16T05:36:15.232Z,99040.66
2023-03-16T05:38:46.645Z,99034.72
2023-03-16T05:41:23.357Z,99038.75
2023-03-16T05:44:20.469Z,99033.31
2023-03-16T05:47:14.578Z,99049.81
2023-03-16T05:49:46.731Z,99054.16
2023-03-16T05:52:26.357Z,99050.88
2023-03-16T05:54:56.680Z,99057.31
2023-03-16T05:57:24.365Z,99055.94
2023-03-16T05:59:53.531Z,99049.28
2023-03-16T06:02:22.479Z,99056.00
2023-03-16T06:04:50.552Z,99049.91
2023-03-16T06:07:18.805Z,99064.47
2023-03-16T06:09:46.670Z,99076.75
2023-03-16T06:12:16.854Z,99092.38
2023-03-16T06:14:44.615Z,99092.34
2023-03-16T06:17:12.042Z,99093.88
2023-03-16T06:19:41.709Z,99085.34
2023-03-16T06:22:10.572Z,99086.22
2023-03-16T06:24:39.411Z,99089.28
2023-03-16T06:27:08.355Z,99095.09
2023-03-16T06:29:50.564Z,99096.94
2023-03-16T06:32:18.451Z,99112.41
2023-03-16T06:34:46.391Z,99112.34
2023-03-16T06:37:16.339Z,99102.13
2023-03-16T06:39:45.223Z,99102.06
2023-03-16T06:42:13.058Z,99113.47
2023-03-16T06:44:40.598Z,99116.88
2023-03-16T06:47:11.018Z,99116.69
2023-03-16T06:49:39.335Z,99114.97
2023-03-16T06:52:17.316Z,99112.66
2023-03-16T06:54:44.840Z,99116.13
2023-03-16T06:57:14.410Z,99107.19
2023-03-16T06:59:44.082Z,99115.44
2023-03-16T07:02:15.601Z,99118.00
2023-03-16T07:04:44.423Z,99120.34
2023-03-16T07:07:12.703Z,99118.72
2023-03-16T07:09:41.886Z,99120.25
2023-03-16T07:12:11.124Z,99123.06
2023-03-16T07:14:38.638Z,99128.03
2023-03-16T07:17:06.999Z,99134.94
2023-03-16T07:19:34.956Z,99134.78
2023-03-16T07:22:04.285Z,99138.00
2023-03-16T07:24:36.364Z,99136.25
2023-03-16T07:27:04.477Z,99131.69
2023-03-16T07:29:34.719Z,99136.03
2023-03-16T07:32:04.365Z,99148.22
2023-03-16T07:34:37.187Z,99150.53
2023-03-16T07:37:05.886Z,99159.78
2023-03-16T07:39:34.966Z,99153.50
2023-03-16T07:42:09.056Z,99155.28
2023-03-16T07:44:51.941Z,99156.63
2023-03-16T07:47:20.526Z,99152.31
2023-03-16T07:49:49.136Z,99147.69
2023-03-16T07:52:17.540Z,99150.91
2023-03-16T07:54:46.543Z,99163.84
2023-03-16T07:57:14.913Z,99158.25
2023-03-16T07:59:44.422Z,99161.47
2023-03-16T08:02:17.396Z,99162.53
2023-03-16T08:04:46.566Z,99155.69
2023-03-16T08:07:17.417Z,99160.56
2023-03-16T08:10:07.044Z,99166.19
2023-03-16T08:12:46.958Z,99163.09
2023-03-16T08:15:15.962Z,99167.38
2023-03-16T08:17:44.546Z,99166.38
2023-03-16T08:20:19.571Z,99165.84
2023-03-16T08:22:50.172Z,99166.88
2023-03-16T08:25:22.515Z,99167.84
2023-03-16T08:28:05.315Z,99174.53
2023-03-16T08:30:33.579Z,99186.91
2023-03-16T08:33:40.051Z,99186.31
2023-03-16T08:36:14.304Z,99189.84
2023-03-16T08:38:50.929Z,99191.41
2023-03-16T08:41:31.193Z,99196.78
2023-03-16T08:44:03.559Z,99206.09
2023-03-16T08:46:31.814Z,99200.78
2023-03-16T08:49:00.693Z,99192.31
2023-03-16T08:51:30.125Z,99199.31
2023-03-16T08:53:57.885Z,99200.00
2023-03-16T08:56:25.777Z,99202.69
2023-03-16T08:58:53.720Z,99205.41
2023-03-16T09:01:22.650Z,99210.69
2023-03-16T09:03:52.055Z,99207.38
2023-03-16T09:06:20.160Z,99219.25
2023-03-16T09:08:48.400Z,99210.50
2023-03-16T09:11:19.173Z,99207.38
2023-03-16T09:13:47.765Z,99210.03
2023-03-16T09:16:16.787Z,99215.72
2023-03-16T09:18:44.378Z,99220.81
2023-03-16T09:21:16.211Z,99216.50
2023-03-16T09:23:44.465Z,99220.25
2023-03-16T09:26:13.590Z,99229.63
2023-03-16T09:28:48.335Z,99222.19
2023-03-16T09:31:21.465Z,99226.31
2023-03-16T09:33:50.488Z,99229.28
2023-03-16T09:36:19.023Z,99217.59
2023-03-16T09:38:47.624Z,99226.47
2023-03-16T09:41:40.732Z,99220.34
2023-03-16T09:44:14.402Z,99225.22
2023-03-16T09:46:49.071Z,99221.63
2023-03-16T09:49:21.600Z,99224.31
2023-03-16T09:51:59.670Z,99228.56
2023-03-16T09:54:52.349Z,99224.31
2023-03-16T09:57:36.153Z,99220.97
2023-03-16T10:00:22.442Z,99227.66
2023-03-16T10:02:50.112Z,99229.41
2023-03-16T10:05:22.166Z,99233.47
2023-03-16T10:08:04.684Z,99227.28
2023-03-16T10:11:12.673Z,99233.91
2023-03-16T10:13:46.551Z,99223.94
2023-03-16T10:16:21.867Z,99227.84
2023-03-16T10:18:54.614Z,99219.66
2023-03-16T10:21:25.100Z,99236.41
2023-03-16T10:23:56.495Z,99236.53
2023-03-16T10:26:30.302Z,99242.28
2023-03-16T10:28:58.136Z,99235.06
2023-03-16T10:31:26.248Z,99238.75
2023-03-16T10:34:03.258Z,99235.19
2023-03-16T10:36:44.740Z,99237.59
2023-03-16T10:39:17.091Z,99245.41
2023-03-16T10:41:55.215Z,99257.69
2023-03-16T10:44:29.276Z,99258.88
2023-03-16T10:47:04.360Z,99266.38
2023-03-16T10:49:47.382Z,99263.91
2023-03-16T10:52:16.698Z,99269.28
2023-03-16T10:55:10.750Z,99270.91
2023-03-16T10:57:43.610Z,99279.69
2023-03-16T11:00:21.424Z,99271.19
2023-03-16T11:02:51.806Z,99275.56
2023-03-16T11:05:20.183Z,99280.91
2023-03-16T11:08:19.737Z,99284.84
2023-03-16T11:10:58.220Z,99285.13
2023-03-16T11:13:35.141Z,99276.16
2023-03-16T11:16:15.230Z,99281.09
2023-03-16T11:18:50.756Z,99271.22
2023-03-16T11:21:52.133Z,99276.66
2023-03-16T11:24:43.666Z,99277.97
2023-03-16T11:27:33.831Z,99272.34
2023-03-16T11:30:07.660Z,99276.16
2023-03-16T11:32:40.796Z,99278.19
2023-03-16T11:35:31.540Z,99280.22
2023-03-16T11:38:09.834Z,99284.91
2023-03-16T11:40:56.277Z,99286.00
2023-03-16T11:43:48.177Z,99288.88
2023-03-16T11:46:27.731Z,99295.97
2023-03-16T11:49:34.561Z,99297.00
2023-03-16T11:52:33.872Z,99296.69
2023-03-16T11:55:22.898Z,99301.38
2023-03-16T11:58:23.642Z,99311.06
2023-03-16T12:01:26.295Z,99307.56
2023-03-16T12:04:21.257Z,99312.47
2023-03-16T12:07:03.915Z,99317.78
2023-03-16T12:09:45.662Z,99320.41
2023-03-16T12:12:37.955Z,99325.50
2023-03-16T12:15:35.424Z,99333.34
2023-03-16T12:18:26.987Z,99339.97
2023-03-16T12:21:03.862Z,99333.66
2023-03-16T12:23:39.857Z,99344.13
2023-03-16T12:26:09.081Z,99353.09
2023-03-16T12:28:37.783Z,99342.66
2023-03-16T12:31:27.978Z,99346.41
2023-03-16T12:34:34.927Z,99348.63
2023-03-16T12:37:20.568Z,99355.69
2023-03-16T12:40:34.204Z,99355.84
2023-03-16T12:43:01.949Z,99361.56
2023-03-16T12:46:14.617Z,99363.13
2023-03-16T12:49:02.313Z,99367.47
2023-03-16T12:51:41.846Z,99364.97
2023-03-16T12:54:24.168Z,99378.44
2023-03-16T12:56:56.042Z,99371.19
2023-03-16T12:59:25.522Z,99375.44
2023-03-16T13:01:59.777Z,99376.25
2023-03-16T13:04:38.799Z,99375.75
2023-03-16T13:07:31.613Z,99388.81
2023-03-16T13:10:15.192Z,99386.91
2023-03-16T13:12:44.684Z,99382.59
2023-03-16T13:15:27.222Z,99387.97
2023-03-16T13:18:10.182Z,99386.13
2023-03-16T13:20:51.773Z,99381.97
2023-03-16T13:23:19.446Z,99381.22
2023-03-16T13:26:16.672Z,99390.03
2023-03-16T13:28:52.847Z,99391.19
2023-03-16T13:31:29.608Z,99396.34
2023-03-16T13:34:00.580Z,99396.41
2023-03-16T13:36:33.009Z,99398.25
2023-03-16T13:39:21.309Z,99401.06
2023-03-16T13:42:18.129Z,99399.97
2023-03-16T13:44:46.559Z,99396.41
2023-03-16T13:47:19.375Z,99403.53
2023-03-16T13:49:50.553Z,99401.06
2023-03-16T13:52:22.880Z,99404.59
2023-03-16T13:54:52.840Z,99403.13
2023-03-16T13:57:27.998Z,99401.25
2023-03-16T14:00:20.504Z,99395.09
2023-03-16T14:02:53.695Z,99397.16
2023-03-16T14:05:33.727Z,99404.50
2023-03-16T14:08:02.458Z,99413.03
2023-03-16T14:10:35.890Z,99418.31
2023-03-16T14:13:09.798Z,99415.59
2023-03-16T14:15:39.351Z,99423.38
2023-03-16T14:18:17.086Z,99421.84
2023-03-16T14:20:45.488Z,99427.81
2023-03-16T14:23:36.697Z,99420.78
2023-03-16T14:26:07.217Z,99430.38
2023-03-16T14:28:35.160Z,99432.91
2023-03-16T14:31:20.053Z,99437.16
2023-03-16T14:33:49.277Z,99440.66
2023-03-16T14:36:20.106Z,99443.16
2023-03-16T14:38:49.527Z,99442.56
2023-03-16T14:41:27.864Z,99448.63
2023-03-16T14:43:59.246Z,99452.34
2023-03-16T14:46:41.806Z,99451.53
2023-03-16T14:49:28.390Z,99457.63
2023-03-16T14:52:22.740Z,99462.94
2023-03-16T14:54:51.797Z,99470.91
2023-03-16T14:57:20.652Z,99477.97
2023-03-16T14:59:49.718Z,99476.16
2023-03-16T15:02:32.701Z,99485.75
2023-03-16T15:05:02.500Z,99496.06
2023-03-16T15:07:36.136Z,99500.69
2023-03-16T15:10:11.244Z,99499.19
2023-03-16T15:12:41.509Z,99501.03
2023-03-16T15:15:17.609Z,99504.56
2023-03-16T15:17:49.508Z,99508.34
2023-03-16T15:20:26.576Z,99518.03
2023-03-16T15:22:55.587Z,99525.88
2023-03-16T15:25:42.459Z,99524.19
2023-03-16T15:28:16.921Z,99524.38
2023-03-16T15:30:53.822Z,99534.78
2023-03-16T15:33:24.613Z,99534.16
2023-03-16T15:35:56.153Z,99538.31
2023-03-16T15:38:47.843Z,99536.69
2023-03-16T15:41:17.460Z,99544.69
2023-03-16T15:43:46.747Z,99548.22
2023-03-16T15:46:15.702Z,99556.94
2023-03-16T15:48:44.636Z,99562.97
2023-03-16T15:51:22.359Z,99567.38
2023-03-16T15:54:00.294Z,99574.34
2023-03-16T15:56:32.346Z,99563.06
2023-03-16T15:59:08.162Z,99567.63
2023-03-16T16:01:46.445Z,99579.69
2023-03-16T16:04:17.787Z,99578.84
2023-03-16T16:06:46.404Z,99593.59
2023-03-16T16:09:14.482Z,99597.22
2023-03-16T16:11:43.270Z,99608.56
2023-03-16T16:14:23.630Z,99610.34
2023-03-16T16:16:52.236Z,99618.34
2023-03-16T16:19:19.817Z,99620.91
2023-03-16T16:21:48.312Z,99623.56
2023-03-16T16:24:18.087Z,99633.28
2023-03-16T16:26:54.873Z,99625.44
2023-03-16T16:29:25.488Z,99635.13
2023-03-16T16:31:53.094Z,99641.09
2023-03-16T16:34:24.799Z,99642.06
2023-03-16T16:36:53.302Z,99645.59
2023-03-16T16:39:21.315Z,99642.06
2023-03-16T16:41:51.087Z,99646.53
2023-03-16T16:44:23.876Z,99651.72
2023-03-16T16:46:52.582Z,99652.47
2023-03-16T16:49:24.229Z,99655.22
2023-03-16T16:51:53.391Z,99653.41
2023-03-16T16:54:26.183Z,99660.47
2023-03-16T16:56:54.257Z,99652.69
2023-03-16T16:59:28.338Z,99668.47
2023-03-16T17:01:56.756Z,99674.56
2023-03-16T17:04:27.241Z,99671.19
2023-03-16T17:06:58.999Z,99668.47
2023-03-16T17:09:28.223Z,99671.94
2023-03-16T17:11:59.144Z,99686.91
2023-03-16T17:14:28.659Z,99680.66
2023-03-16T17:16:57.329Z,99697.16
2023-03-16T17:19:28.158Z,99703.56
2023-03-16T17:21:58.562Z,99713.09
2023-03-16T17:24:26.095Z,99711.41
2023-03-16T17:26:57.660Z,99722.59
2023-03-16T17:29:29.417Z,99720.94
2023-03-16T17:31:56.606Z,99726.91
2023-03-16T17:34:29.424Z,99732.16
2023-03-16T17:36:56.837Z,99731.28
2023-03-16T17:39:30.117Z,99734.78
2023-03-16T17:42:12.331Z,99745.31
2023-03-16T17:44:46.128Z,99742.81
2023-03-16T17:47:18.531Z,99740.22
2023-03-16T17:49:49.101Z,99743.63
2023-03-16T17:52:20.018Z,99731.44
2023-03-16T17:54:48.578Z,99734.94
2023-03-16T17:57:22.954Z,99739.34
2023-03-16T17:59:50.526Z,99728.88
2023-03-16T18:02:50.110Z,99736.72
2023-03-16T18:05:38.701Z,99738.53
2023-03-16T18:08:28.418Z,99741.03
2023-03-16T18:11:08.056Z,99749.78
2023-03-16T18:13:38.508Z,99751.47
2023-03-16T18:16:08.841Z,99754.06
2023-03-16T18:18:41.951Z,99755.81
2023-03-16T18:21:22.373Z,99754.13
2023-03-16T18:23:51.155Z,99751.69
2023-03-16T18:26:19.944Z,99763.00
2023-03-16T18:28:49.263Z,99764.75
2023-03-16T18:31:19.427Z,99770.03
2023-03-16T18:33:49.694Z,99766.56
2023-03-16T18:36:29.963Z,99777.03
2023-03-16T18:39:00.163Z,99775.34
2023-03-16T18:41:30.124Z,99784.34
2023-03-16T18:44:01.020Z,99779.03
2023-03-16T18:46:41.941Z,99774.63
2023-03-16T18:49:39.461Z,99781.66
2023-03-16T18:52:21.308Z,99782.53
2023-03-16T18:54:49.365Z,99784.25
2023-03-16T18:57:19.744Z,99785.13
2023-03-16T18:59:47.875Z,99793.81
2023-03-16T19:02:31.017Z,99794.66
2023-03-16T19:05:00.637Z,99804.22
2023-03-16T19:07:43.323Z,99804.28
2023-03-16T19:10:33.286Z,99803.41
2023-03-16T19:13:01.139Z,99807.81
2023-03-16T19:15:32.178Z,99801.72
2023-03-16T19:18:00.654Z,99806.22
2023-03-16T19:20:30.701Z,99800.09
2023-03-16T19:23:06.971Z,99809.66
2023-03-16T19:25:39.949Z,99810.47
2023-03-16T19:28:38.319Z,99813.97
2023-03-16T19:31:16.593Z,99800.06
2023-03-16T19:33:44.320Z,99807.03
2023-03-16T19:36:19.260Z,99810.59
2023-03-16T19:38:46.764Z,99814.09
2023-03-16T19:41:32.653Z,99822.81
2023-03-16T19:44:17.136Z,99822.81
2023-03-16T19:46:45.533Z,99825.44
2023-03-16T19:49:24.435Z,99829.03
2023-03-16T19:51:53.401Z,99827.38
2023-03-16T19:54:24.619Z,99815.97
2023-03-16T19:56:53.985Z,99825.47
2023-03-16T19:59:21.505Z,99822.03
2023-03-16T20:01:48.988Z,99825.53
2023-03-16T20:04:23.355Z,99812.47
2023-03-16T20:06:51.217Z,99818.53
2023-03-16T20:09:18.788Z,99830.69
2023-03-16T20:11:48.090Z,99824.59
2023-03-16T20:14:21.269Z,99825.56
2023-03-16T20:16:49.646Z,99823.91
2023-03-16T20:19:16.895Z,99823.81
2023-03-16T20:21:44.376Z,99827.31
2023-03-16T20:24:21.155Z,99829.16
2023-03-16T20:26:53.753Z,99828.22
2023-03-16T20:29:31.684Z,99835.22
2023-03-16T20:32:01.547Z,99823.06
2023-03-16T20:34:31.799Z,99823.94
2023-03-16T20:37:00.000Z,99828.22
2023-03-16T20:39:28.064Z,99823.88
2023-03-16T20:41:55.944Z,99837.78
2023-03-16T20:44:25.695Z,99837.78
2023-03-16T20:46:53.487Z,99838.75
2023-03-16T20:49:25.403Z,99831.66
2023-03-16T20:51:52.887Z,99845.66
2023-03-16T20:54:20.893Z,99850.00
2023-03-16T20:56:48.306Z,99849.09
2023-03-16T20:59:30.320Z,99848.28
2023-03-16T21:01:57.711Z,99850.91
2023-03-16T21:04:27.934Z,99851.72
2023-03-16T21:06:57.029Z,99856.19
2023-03-16T21:09:24.260Z,99864.94
2023-03-16T21:11:51.954Z,99862.25
2023-03-16T21:14:24.664Z,99862.16
2023-03-16T21:16:52.630Z,99864.00
2023-03-16T21:19:23.123Z,99868.38
2023-03-16T21:21:50.985Z,99875.31
2023-03-16T21:24:18.279Z,99864.00
2023-03-16T21:26:47.824Z,99876.16
2023-03-16T21:29:20.903Z,99873.63
2023-03-16T21:31:48.836Z,99869.22
2023-03-16T21:34:37.140Z,99877.91
2023-03-16T21:37:14.385Z,99876.19
2023-03-16T21:39:43.444Z,99873.75
2023-03-16T21:42:11.234Z,99873.72
2023-03-16T21:44:38.508Z,99871.09
2023-03-16T21:47:18.433Z,99869.28
2023-03-16T21:49:45.810Z,99869.25
2023-03-16T21:52:23.750Z,99864.00
2023-03-16T21:54:56.204Z,99870.97
2023-03-16T21:57:23.929Z,99870.94
2023-03-16T21:59:51.434Z,99872.78
2023-03-16T22:02:20.782Z,99874.50
2023-03-16T22:04:48.964Z,99883.94
2023-03-16T22:07:16.862Z,99885.69
2023-03-16T22:09:44.112Z,99881.31
2023-03-16T22:12:13.556Z,99897.00
2023-03-16T22:14:41.350Z,99883.91
2023-03-16T22:17:21.127Z,99891.78
2023-03-16T22:19:48.901Z,99892.66
2023-03-16T22:22:17.632Z,99885.63
2023-03-16T22:24:45.566Z,99893.44
2023-03-16T22:27:21.840Z,99910.84
2023-03-16T22:29:51.366Z,99897.81
2023-03-16T22:32:22.247Z,99903.13
2023-03-16T22:34:53.219Z,99909.13
2023-03-16T22:37:24.544Z,99904.84
2023-03-16T22:39:53.018Z,99910.06
2023-03-16T22:42:29.587Z,99909.09
2023-03-16T22:44:58.209Z,99917.75
2023-03-16T22:47:28.818Z,99914.31
2023-03-16T22:49:57.150Z,99916.16
2023-03-16T22:52:33.692Z,99922.16
2023-03-16T22:55:03.465Z,99921.38
2023-03-16T22:57:31.492Z,99920.41
2023-03-16T23:00:00.150Z,99917.00
2023-03-16T23:02:29.261Z,99918.75
2023-03-16T23:04:56.519Z,99918.72
2023-03-16T23:07:24.363Z,99916.16
2023-03-16T23:09:52.699Z,99923.97
2023-03-16T23:12:21.877Z,99918.72
2023-03-16T23:14:49.625Z,99921.25
2023-03-16T23:17:19.987Z,99920.56
2023-03-16T23:19:48.390Z,99922.28
2023-03-16T23:22:16.600Z,99922.25
2023-03-16T23:24:46.038Z,99924.00
2023-03-16T23:27:19.434Z,99923.97
2023-03-16T23:29:47.009Z,99920.41
2023-03-16T23:32:17.397Z,99914.25
2023-03-16T23:34:45.441Z,99920.34
2023-03-16T23:37:13.209Z,99922.91
2023-03-16T23:39:40.548Z,99927.22
2023-03-16T23:42:08.204Z,99926.38
2023-03-16T23:44:36.649Z,99919.38
2023-03-16T23:47:03.916Z,99926.34
2023-03-16T23:49:37.872Z,99927.19
2023-03-16T23:52:05.654Z,99936.78
2023-03-16T23:54:33.643Z,99932.47
2023-03-16T23:57:01.396Z,99931.56
2023-03-16T23:59:28.961Z,99933.31
